Ora, Indiana
Current Conditions -  °F | °C
As of 9:55 AM on Thursday 30 Oct 2014 (Local Time) from KOXI Reporting Station
Clear Clear  
Wind Chill: 44°   Ceiling: Unl
Heat Index: 44°   Visibility: 10mi
Dew Point: 33°   Wind: 3mph
Humidity: 65%   Direction: 240°WSW
Pressure: 30.15"   Gusts: NA
Location:  41.17°N, 86.55°W
Report Text: KOXI 301455Z AUTO 24003KT 10SM CLR 07/01 A3015 RMK AO1 T00680007
Loading
Personal Weather Stations






























Interactive Weather Map
Tropical Storm Tracking
New forecast layout! Learn more

10-Day Weather Forecast

Advertisements
Track Severe Weather on mobile